Kailua Kona, HI

7:08 PM HST on January 23, 2017 (GMT -1000)
Waiha Loop | | Change Station
Active Advisory: Small Craft Advisory

Elev 1289 ft 19.69 °N, 155.98 °W | Updated 9 minutes ago

Clear
Clear
75.6 °F
Feels Like 77 °F
N
0.6
Wind Variable Wind from NNE
Gusts 1.2 mph

Today
High -- | Low -- °F
--% Chance of Precip.
Yesterday
High -- | Low -- °F
Precip. -- in
Pressure 30.10 in
Visibility 10.0 miles
Clouds Few 9000 ft
Heat Index 77 °F
Dew Point 66 °F
Humidity 72%
Rainfall 0.00 in
Snow Depth Not available.
7:00 AM 6:11 PM
Waning Crescent, 14% visible
METAR PHKO 240453Z 18004KT 10SM FEW090 25/19 A3010 RMK AO2 SLP193 T02500194
Pressure 30.10 in
Visibility 10.0 miles
Clouds Few 9000 ft
Heat Index 77 °F
Dew Point 66 °F
Humidity 72%
Rainfall 0.00 in
Snow Depth Not available.
7:00 AM 6:11 PM
Waning Crescent, 14% visible
METAR PHKO 240453Z 18004KT 10SM FEW090 25/19 A3010 RMK AO2 SLP193 T02500194

Get Your Daily Forecast Email!

Thanks for signing up!

Be on the lookout for a verification email in your inbox.

You'll start receiving the daily forecast at 8 AM.

×

10-Day Weather Forecast

Almanac

Astronomy

Jan. 23, 2017 Rise Set
Actual Time
Civil Twilight
Nautical Twilight
Astronomical Twilight
Moon
Length of Visible Light
Length of Day
Tomorrow will be .
, % of the Moon is Illuminated

Today's Extremes

State Highs State Lows

Community

WunderPhotos

Upload Photos

1,962,540 photos uploaded!

WunderBlog® & News

Nearby

Air Quality

  Air Quality AQ Index Pollutant
Not available.

Snow Depth

Station Depth Elevation

Earthquake Activity

City Distance Mag. Time & Date
Minimum magnitude displayed is 2.5.

Coastal Water Temperatures

Place Temperature

Stations

Nearby Weather Stations

Station Location Temp. Windchill Dew Point Humidity Wind Precip. Elev Updated Type
                   

Watches & Warnings

Small Craft Advisory
Issued: 3:33 PM HST Jan. 23, 2017 – National Weather Service

... Small Craft Advisory now in effect until midnight HST
tonight...

* winds... east 10 to 20 kt.

* Seas... 9 to 11 ft.

Precautionary/preparedness actions...

A Small Craft Advisory means that wind speeds of 25 to 33 knots
and/or seas 10 feet or greater are expected to produce conditions
hazardous to small craft. Inexperienced mariners... especially
those operating smaller vessels... should avoid navigating in
these conditions.